Time;durP1;ratioP1;P1;durP2;ratioP2;P2;SDS_P1;SDS_P2;PMS_P1;PMS_P2;Temp;Humidity;BMP_temperature;BMP_pressure;BME280_temperature;BME280_humidity;BME280_pressure;Samples;Min_cycle;Max_cycle;Signal;HPM_P1;HPM_P2
2022/09/26 00:02:00;;;;;;;16.30;8.20;;;;;;;12.85;100.00;95742.44;5038849;28;20251;-69
2022/09/26 00:04:28;;;;;;;16.83;8.27;;;;;;;12.97;100.00;95745.28;5039127;28;20204;-69
2022/09/26 00:06:56;;;;;;;13.30;7.60;;;;;;;12.92;100.00;95745.91;5037646;28;21006;-69
2022/09/26 00:09:25;;;;;;;12.47;6.97;;;;;;;12.91;100.00;95746.13;5036912;28;20229;-69
2022/09/26 00:11:53;;;;;;;14.48;7.35;;;;;;;12.82;100.00;95747.31;5037700;28;20202;-69
2022/09/26 00:14:22;;;;;;;13.00;6.67;;;;;;;12.90;100.00;95744.50;5034297;28;20235;-68
2022/09/26 00:16:49;;;;;;;12.87;6.87;;;;;;;12.68;100.00;95743.03;5037864;28;20201;-69
2022/09/26 00:19:15;;;;;;;13.52;6.93;;;;;;;12.67;100.00;95746.69;5036890;28;20229;-69
2022/09/26 00:21:42;;;;;;;13.52;6.55;;;;;;;12.66;100.00;95739.75;5037775;28;20200;-68
2022/09/26 00:24:09;;;;;;;12.45;7.10;;;;;;;12.52;100.00;95732.81;5036638;28;20202;-68
2022/09/26 00:26:37;;;;;;;13.45;6.90;;;;;;;12.60;100.00;95735.28;5037391;28;21055;-69
2022/09/26 00:29:09;;;;;;;14.82;7.55;;;;;;;12.61;100.00;95731.59;5034345;28;20229;-69
2022/09/26 00:31:38;;;;;;;15.23;7.27;;;;;;;12.65;100.00;95727.53;5037778;28;20205;-68
2022/09/26 00:34:05;;;;;;;15.23;7.57;;;;;;;12.61;100.00;95726.31;5036685;28;20232;-68
2022/09/26 00:36:32;;;;;;;22.47;7.77;;;;;;;12.60;100.00;95722.06;5036886;28;20213;-68
2022/09/26 00:38:59;;;;;;;15.13;7.57;;;;;;;12.57;100.00;95722.47;5036382;28;20228;-68
2022/09/26 00:41:26;;;;;;;14.93;7.27;;;;;;;12.56;100.00;95715.53;5036701;28;20205;-68
2022/09/26 00:43:54;;;;;;;14.38;8.13;;;;;;;12.63;100.00;95721.66;5037021;28;20222;-68
2022/09/26 00:46:30;;;;;;;16.73;7.88;;;;;;;12.64;100.00;95715.38;5036484;28;20205;-68
2022/09/26 00:49:06;;;;;;;13.83;7.50;;;;;;;12.61;100.00;95717.59;5035841;28;20232;-68
2022/09/26 00:51:35;;;;;;;17.05;7.10;;;;;;;12.55;100.00;95716.56;5036748;28;20324;-68
2022/09/26 00:54:03;;;;;;;18.02;7.75;;;;;;;12.60;100.00;95708.88;5037649;28;20732;-69
2022/09/26 00:56:34;;;;;;;17.73;7.97;;;;;;;12.64;100.00;95699.50;5037451;28;20315;-69
2022/09/26 00:59:04;;;;;;;18.88;8.63;;;;;;;12.58;100.00;95705.59;5039261;28;20229;-69
2022/09/26 01:01:33;;;;;;;16.63;8.47;;;;;;;12.62;100.00;95703.38;5039413;28;20209;-68
2022/09/26 01:04:01;;;;;;;18.77;8.97;;;;;;;12.57;100.00;95703.16;5038796;28;20233;-68
2022/09/26 01:06:28;;;;;;;17.00;8.27;;;;;;;12.48;100.00;95697.25;5038798;28;20201;-69
2022/09/26 01:08:58;;;;;;;16.70;8.27;;;;;;;12.48;100.00;95693.78;5038990;28;20225;-69
2022/09/26 01:11:26;;;;;;;18.15;8.45;;;;;;;12.43;100.00;95691.75;5039028;28;20236;-68
2022/09/26 01:13:54;;;;;;;18.63;8.77;;;;;;;12.57;100.00;95687.28;5038472;28;20225;-69
2022/09/26 01:16:21;;;;;;;17.73;7.82;;;;;;;12.47;100.00;95687.69;5038503;28;20201;-69
2022/09/26 01:18:50;;;;;;;17.77;9.13;;;;;;;12.51;100.00;95682.81;5037828;28;20225;-69
2022/09/26 01:21:36;;;;;;;17.70;8.70;;;;;;;12.49;100.00;95680.38;5037779;28;20209;-69
2022/09/26 01:24:28;;;;;;;19.85;8.27;;;;;;;12.46;100.00;95680.78;5037160;28;20208;-69
2022/09/26 01:27:10;;;;;;;18.57;7.47;;;;;;;12.46;100.00;95688.72;5032303;28;20209;-68
2022/09/26 01:30:05;;;;;;;19.07;8.57;;;;;;;12.56;100.00;95683.03;5033455;28;20245;-68
2022/09/26 01:32:56;;;;;;;19.43;8.70;;;;;;;12.49;100.00;95680.38;5035287;28;20208;-68
2022/09/26 01:35:34;;;;;;;19.30;8.47;;;;;;;12.45;100.00;95683.63;5035889;28;20201;-68
2022/09/26 01:38:18;;;;;;;21.87;9.87;;;;;;;12.44;100.00;95669.59;5035603;28;20205;-69
2022/09/26 01:41:00;;;;;;;20.70;8.93;;;;;;;12.48;100.00;95675.28;5035834;28;20317;-69
2022/09/26 01:43:33;;;;;;;20.00;9.48;;;;;;;12.46;100.00;95680.78;5034957;28;20201;-68
2022/09/26 01:46:08;;;;;;;23.37;10.23;;;;;;;12.55;100.00;95678.75;5036334;28;20208;-68
2022/09/26 01:48:39;;;;;;;20.87;9.47;;;;;;;12.48;100.00;95681.38;5035045;28;20208;-68
2022/09/26 01:51:12;;;;;;;19.25;8.98;;;;;;;12.53;100.00;95686.09;5035359;28;20208;-69
2022/09/26 01:53:43;;;;;;;24.05;9.45;;;;;;;12.56;100.00;95678.53;5034698;28;20213;-68
2022/09/26 01:56:13;;;;;;;26.00;10.30;;;;;;;12.56;100.00;95683.81;5035209;28;20205;-68
2022/09/26 01:58:47;;;;;;;18.95;9.23;;;;;;;12.55;100.00;95676.09;5035143;28;20208;-69
2022/09/26 02:01:16;;;;;;;23.50;9.63;;;;;;;12.51;100.00;95673.06;5036154;28;20209;-68
2022/09/26 02:03:47;;;;;;;20.70;9.75;;;;;;;12.59;100.00;95679.97;5034267;28;20198;-68
2022/09/26 02:06:19;;;;;;;24.37;10.63;;;;;;;12.57;100.00;95674.88;5035592;28;20205;-68
2022/09/26 02:08:50;;;;;;;19.55;8.95;;;;;;;12.53;100.00;95676.31;5035103;28;20239;-69
2022/09/26 02:11:18;;;;;;;20.95;9.38;;;;;;;12.48;100.00;95672.66;5032566;28;20232;-68
2022/09/26 02:13:51;;;;;;;19.13;9.43;;;;;;;12.54;100.00;95677.94;5034266;28;20225;-68
2022/09/26 02:16:23;;;;;;;21.25;8.63;;;;;;;12.45;100.00;95676.50;5035546;28;20772;-69
2022/09/26 02:18:54;;;;;;;18.00;8.70;;;;;;;12.45;100.00;95678.34;5035501;28;20229;-68
2022/09/26 02:21:23;;;;;;;23.43;10.23;;;;;;;12.51;100.00;95670.44;5035765;28;20215;-68
2022/09/26 02:23:51;;;;;;;21.90;10.20;;;;;;;12.55;100.00;95687.50;5036255;28;20205;-68
2022/09/26 02:26:18;;;;;;;24.45;9.48;;;;;;;12.53;100.00;95683.44;5035698;28;20212;-68
2022/09/26 02:28:45;;;;;;;20.50;9.68;;;;;;;12.51;100.00;95681.00;5031398;28;20200;-68
2022/09/26 02:31:19;;;;;;;21.00;9.87;;;;;;;12.58;100.00;95671.22;5036342;28;20212;-69
2022/09/26 02:33:47;;;;;;;21.63;9.30;;;;;;;12.53;100.00;95672.88;5035053;28;20717;-69
2022/09/26 02:36:14;;;;;;;18.97;8.80;;;;;;;12.44;100.00;95682.00;5035314;28;20220;-68
2022/09/26 02:38:40;;;;;;;20.45;8.55;;;;;;;12.36;100.00;95684.84;5039340;28;20324;-68
2022/09/26 02:41:16;;;;;;;18.73;8.60;;;;;;;12.41;100.00;95679.75;5039116;28;20209;-68
2022/09/26 02:43:56;;;;;;;9.05;5.18;;;;;;;12.38;100.00;95674.88;5039121;28;20197;-68
2022/09/26 02:46:37;;;;;;;14.00;6.77;;;;;;;12.24;100.00;95684.63;5039313;28;20205;-68
2022/09/26 02:49:19;;;;;;;15.47;6.90;;;;;;;12.33;100.00;95682.59;5038611;28;20324;-68
2022/09/26 02:52:01;;;;;;;35.87;16.67;;;;;;;12.13;100.00;95680.91;5038785;28;20201;-69
2022/09/26 02:54:35;;;;;;;10.17;4.80;;;;;;;12.07;100.00;95681.72;5038268;28;21081;-68
2022/09/26 02:57:21;;;;;;;32.23;16.63;;;;;;;12.21;100.00;95684.19;5039901;28;21042;-68
2022/09/26 02:59:56;;;;;;;19.67;7.30;;;;;;;12.04;100.00;95685.59;5038325;28;20282;-68
2022/09/26 03:02:30;;;;;;;12.05;5.18;;;;;;;11.98;100.00;95682.94;5038119;28;20274;-68
2022/09/26 03:05:03;;;;;;;13.70;6.60;;;;;;;11.89;100.00;95681.44;5040231;28;20201;-68
2022/09/26 03:07:35;;;;;;;11.88;5.35;;;;;;;11.90;100.00;95683.09;5038699;28;20212;-69
2022/09/26 03:10:05;;;;;;;16.33;5.97;;;;;;;11.86;100.00;95673.94;5038572;28;20725;-68
2022/09/26 03:12:33;;;;;;;12.50;5.23;;;;;;;11.79;100.00;95670.47;5038649;28;20205;-68
2022/09/26 03:15:02;;;;;;;12.77;4.97;;;;;;;11.88;100.00;95679.84;5038468;28;20229;-68
2022/09/26 03:17:32;;;;;;;10.63;5.13;;;;;;;11.86;100.00;95677.41;5037932;28;20672;-68
2022/09/26 03:20:05;;;;;;;9.83;4.83;;;;;;;11.89;100.00;95673.53;5038881;28;20287;-68
2022/09/26 03:22:32;;;;;;;11.43;4.67;;;;;;;11.66;100.00;95678.34;5038282;28;20197;-68
2022/09/26 03:25:00;;;;;;;17.57;10.67;;;;;;;11.74;100.00;95681.59;5038551;28;20288;-68
2022/09/26 03:27:27;;;;;;;8.77;4.53;;;;;;;11.58;100.00;95675.84;5038488;28;20209;-68
2022/09/26 03:29:54;;;;;;;11.23;5.50;;;;;;;11.71;100.00;95682.00;5034910;28;20232;-68
2022/09/26 03:32:20;;;;;;;9.80;4.60;;;;;;;11.74;100.00;95686.09;5037593;28;20197;-68
2022/09/26 03:34:47;;;;;;;10.30;5.20;;;;;;;11.78;100.00;95679.41;5038815;28;20394;-68
2022/09/26 03:37:15;;;;;;;9.47;4.40;;;;;;;11.72;100.00;95677.53;5038292;28;20626;-68
2022/09/26 03:39:42;;;;;;;12.63;4.43;;;;;;;11.65;100.00;95672.22;5037898;28;20291;-68
2022/09/26 03:42:09;;;;;;;8.47;3.90;;;;;;;11.59;100.00;95667.72;5037701;28;20220;-68
2022/09/26 03:44:35;;;;;;;8.53;3.90;;;;;;;11.63;100.00;95662.88;5038359;28;20198;-68
2022/09/26 03:47:02;;;;;;;9.73;4.40;;;;;;;11.67;100.00;95662.31;5037170;28;20212;-69
2022/09/26 03:49:28;;;;;;;10.23;4.60;;;;;;;11.66;100.00;95657.22;5037815;28;20272;-68
2022/09/26 03:51:55;;;;;;;7.00;4.07;;;;;;;11.64;100.00;95662.69;5038064;28;20696;-68
2022/09/26 03:54:23;;;;;;;8.10;4.23;;;;;;;11.77;100.00;95648.72;5036977;28;20233;-68
2022/09/26 03:56:49;;;;;;;12.23;4.90;;;;;;;11.75;100.00;95648.13;5037518;28;20671;-68
2022/09/26 03:59:16;;;;;;;10.30;4.83;;;;;;;11.79;100.00;95636.16;5038227;28;20232;-68
2022/09/26 04:01:43;;;;;;;9.33;5.13;;;;;;;11.66;100.00;95636.91;5037454;28;20745;-69
2022/09/26 04:04:09;;;;;;;11.60;4.90;;;;;;;11.66;100.00;95630.84;5037587;28;20436;-69
2022/09/26 04:06:36;;;;;;;9.00;3.97;;;;;;;11.74;100.00;95628.00;5038340;28;20587;-70
2022/09/26 04:09:04;;;;;;;9.83;4.50;;;;;;;11.82;100.00;95630.47;5037766;28;20244;-69
2022/09/26 04:11:31;;;;;;;8.82;4.43;;;;;;;11.84;100.00;95629.25;5036293;28;20201;-71
2022/09/26 04:13:58;;;;;;;9.63;5.10;;;;;;;11.71;100.00;95623.94;5037911;28;20235;-69
2022/09/26 04:16:24;;;;;;;9.40;4.77;;;;;;;11.75;100.00;95619.09;5037015;28;20582;-69
2022/09/26 04:18:55;;;;;;;8.02;4.00;;;;;;;11.72;100.00;95620.31;5036816;28;20221;-70
2022/09/26 04:21:22;;;;;;;8.70;4.47;;;;;;;11.77;100.00;95617.88;5036868;28;20205;-69
2022/09/26 04:23:49;;;;;;;10.03;4.43;;;;;;;11.64;100.00;95611.75;5037222;28;20216;-69
2022/09/26 04:26:17;;;;;;;10.10;4.37;;;;;;;11.72;100.00;95615.03;5036606;28;20212;-70
2022/09/26 04:28:48;;;;;;;8.13;4.17;;;;;;;11.72;100.00;95609.75;5033430;28;20209;-70
2022/09/26 04:31:14;;;;;;;9.57;4.33;;;;;;;11.76;100.00;95605.69;5037727;28;20882;-71
2022/09/26 04:33:41;;;;;;;11.27;4.83;;;;;;;11.78;100.00;95611.56;5036179;28;20229;-71
2022/09/26 04:36:09;;;;;;;7.47;4.30;;;;;;;11.75;100.00;95601.41;5037906;28;20564;-71
2022/09/26 04:38:36;;;;;;;9.57;4.60;;;;;;;11.77;100.00;95604.69;5036762;28;20201;-70
2022/09/26 04:41:04;;;;;;;8.13;4.33;;;;;;;11.82;100.00;95596.94;5037630;28;20283;-70
2022/09/26 04:43:31;;;;;;;9.27;5.13;;;;;;;11.75;100.00;95597.97;5036161;28;20202;-69
2022/09/26 04:45:59;;;;;;;9.77;4.53;;;;;;;11.77;100.00;95594.13;5037649;28;20262;-69
2022/09/26 04:48:26;;;;;;;11.23;4.90;;;;;;;11.68;100.00;95597.13;5036195;28;20251;-70
2022/09/26 04:50:53;;;;;;;8.97;4.87;;;;;;;11.59;100.00;95585.94;5036936;28;20205;-69
2022/09/26 04:53:19;;;;;;;11.53;4.83;;;;;;;11.56;100.00;95593.44;5036394;28;20209;-70
2022/09/26 04:55:46;;;;;;;9.80;5.10;;;;;;;11.63;100.00;95591.63;5037143;28;20224;-70
2022/09/26 04:58:14;;;;;;;10.37;5.30;;;;;;;11.57;100.00;95587.16;5036123;28;20201;-69
2022/09/26 05:00:46;;;;;;;11.13;5.77;;;;;;;11.58;100.00;95581.69;5036276;28;20221;-69
2022/09/26 05:03:14;;;;;;;13.40;5.97;;;;;;;11.55;100.00;95586.53;5036082;28;20201;-70
2022/09/26 05:05:42;;;;;;;13.37;7.27;;;;;;;11.43;100.00;95588.09;5037154;28;20201;-69
2022/09/26 05:08:09;;;;;;;14.00;6.10;;;;;;;11.39;100.00;95594.78;5036756;28;20209;-69
2022/09/26 05:10:36;;;;;;;14.73;6.23;;;;;;;11.40;100.00;95592.94;5036299;28;20225;-69
2022/09/26 05:13:02;;;;;;;12.23;5.30;;;;;;;11.46;100.00;95592.97;5035618;28;20221;-69
2022/09/26 05:15:29;;;;;;;11.07;5.37;;;;;;;11.39;100.00;95589.50;5038624;28;20229;-68
2022/09/26 05:17:58;;;;;;;12.40;5.83;;;;;;;11.52;100.00;95589.59;5042273;28;20209;-69
2022/09/26 05:20:28;;;;;;;10.83;4.73;;;;;;;11.59;100.00;95593.03;5042748;28;20229;-68
2022/09/26 05:22:56;;;;;;;9.90;4.70;;;;;;;11.50;100.00;95591.59;5041765;28;20291;-68
2022/09/26 05:28:07;;;;;;;8.73;4.60;;;;;;;11.54;100.00;95597.31;5041183;28;20216;-68
2022/09/26 05:30:34;;;;;;;9.47;5.10;;;;;;;11.58;100.00;95601.97;5041747;28;20233;-68
2022/09/26 05:33:01;;;;;;;11.93;4.63;;;;;;;11.57;100.00;95595.88;5041685;28;20658;-69
2022/09/26 05:35:34;;;;;;;11.00;4.60;;;;;;;11.65;100.00;95597.53;5040307;28;20237;-69
2022/09/26 05:38:01;;;;;;;11.53;4.97;;;;;;;11.44;100.00;95600.25;5036425;28;20292;-68
2022/09/26 05:43:11;;;;;;;10.33;5.23;;;;;;;11.56;100.00;95588.97;5041842;28;20219;-68
2022/09/26 05:45:38;;;;;;;10.53;5.23;;;;;;;11.58;100.00;95580.84;5041745;28;20662;-68
2022/09/26 05:48:05;;;;;;;9.23;5.03;;;;;;;11.64;100.00;95585.34;5042125;28;20551;-68
2022/09/26 05:50:33;;;;;;;10.40;5.50;;;;;;;11.69;100.00;95583.72;5042085;28;20220;-69
2022/09/26 05:53:01;;;;;;;11.00;4.70;;;;;;;11.66;100.00;95578.88;5040209;28;20209;-68
2022/09/26 05:55:28;;;;;;;12.03;5.97;;;;;;;11.73;100.00;95584.16;5041295;28;20227;-69
2022/09/26 05:57:57;;;;;;;11.37;5.63;;;;;;;11.80;100.00;95571.78;5042189;28;20220;-68
2022/09/26 06:00:24;;;;;;;12.50;5.63;;;;;;;11.69;100.00;95575.81;5039204;28;20221;-68
2022/09/26 06:02:55;;;;;;;10.33;4.90;;;;;;;11.86;100.00;95574.44;5040196;28;20209;-68
2022/09/26 06:05:22;;;;;;;11.03;5.57;;;;;;;11.79;100.00;95578.09;5038300;28;20623;-68
2022/09/26 06:07:50;;;;;;;10.13;5.20;;;;;;;11.87;100.00;95564.69;5035245;28;20267;-68
2022/09/26 06:10:17;;;;;;;9.13;4.73;;;;;;;11.80;100.00;95566.50;5034742;28;20228;-68
2022/09/26 06:12:43;;;;;;;16.27;5.00;;;;;;;11.82;100.00;95572.41;5031859;28;20205;-70
2022/09/26 06:15:10;;;;;;;9.90;4.97;;;;;;;11.80;100.00;95587.59;5033296;28;20213;-70
2022/09/26 06:17:37;;;;;;;10.25;5.00;;;;;;;11.80;100.00;95579.69;5033405;28;21102;-71
2022/09/26 06:20:04;;;;;;;10.18;4.90;;;;;;;11.80;100.00;95582.31;5034022;28;20223;-70
2022/09/26 06:22:32;;;;;;;10.57;4.97;;;;;;;11.77;100.00;95585.38;5033705;28;21041;-69
2022/09/26 06:25:00;;;;;;;10.83;5.10;;;;;;;11.90;100.00;95580.94;5033877;28;20200;-70
2022/09/26 06:27:27;;;;;;;10.27;5.27;;;;;;;11.81;100.00;95570.75;5034427;28;20216;-69
2022/09/26 06:29:53;;;;;;;8.50;4.60;;;;;;;11.95;100.00;95573.25;5033682;28;20296;-70
2022/09/26 06:32:19;;;;;;;14.57;5.83;;;;;;;12.01;100.00;95567.13;5035229;28;20216;-72
2022/09/26 06:34:46;;;;;;;12.27;6.00;;;;;;;11.96;100.00;95577.50;5033989;28;20220;-68
2022/09/26 06:37:12;;;;;;;13.13;5.43;;;;;;;11.95;100.00;95567.97;5035245;28;20205;-68
2022/09/26 06:39:40;;;;;;;10.57;5.53;;;;;;;12.03;100.00;95573.03;5034367;28;20232;-69
2022/09/26 06:42:08;;;;;;;9.80;5.23;;;;;;;12.13;100.00;95570.00;5035625;28;20211;-68
2022/09/26 06:44:34;;;;;;;13.27;5.10;;;;;;;12.11;100.00;95566.75;5041192;28;21095;-69
2022/09/26 06:47:01;;;;;;;11.93;4.60;;;;;;;12.15;100.00;95567.97;5041640;28;20205;-68
2022/09/26 06:49:28;;;;;;;13.10;5.77;;;;;;;12.02;100.00;95571.41;5038385;28;20248;-69
2022/09/26 06:51:54;;;;;;;10.60;5.00;;;;;;;12.19;100.00;95564.72;5041378;28;20235;-69
2022/09/26 06:54:21;;;;;;;10.47;5.23;;;;;;;12.28;100.00;95564.31;5040729;28;20213;-70
2022/09/26 06:56:47;;;;;;;12.20;4.73;;;;;;;12.16;100.00;95565.13;5042626;28;20839;-69
2022/09/26 06:59:16;;;;;;;10.77;4.83;;;;;;;12.17;100.00;95562.28;5042858;28;20232;-72
2022/09/26 07:01:43;;;;;;;9.80;4.40;;;;;;;12.23;100.00;95558.00;5040602;28;20235;-72
2022/09/26 07:04:09;;;;;;;8.40;4.70;;;;;;;12.20;100.00;95561.06;5042089;28;20210;-70
2022/09/26 07:06:37;;;;;;;11.50;4.60;;;;;;;12.40;100.00;95567.97;5041299;28;20583;-70
2022/09/26 07:09:03;;;;;;;7.72;4.25;;;;;;;12.50;100.00;95568.38;5038892;28;20221;-70
2022/09/26 07:11:30;;;;;;;9.82;4.75;;;;;;;12.53;100.00;95560.03;5039162;28;20197;-69
2022/09/26 07:13:59;;;;;;;10.63;4.73;;;;;;;12.35;100.00;95559.84;5041105;28;20205;-70
2022/09/26 07:16:26;;;;;;;6.33;3.60;;;;;;;12.39;100.00;95576.91;5041368;28;20220;-70
2022/09/26 07:18:53;;;;;;;9.67;4.80;;;;;;;12.52;100.00;95560.25;5040260;28;20236;-70
2022/09/26 07:21:19;;;;;;;14.13;5.70;;;;;;;12.63;100.00;95562.28;5041884;28;20212;-70
2022/09/26 07:23:46;;;;;;;12.93;5.20;;;;;;;12.55;100.00;95558.00;5041563;28;20674;-70
2022/09/26 07:26:13;;;;;;;7.80;4.10;;;;;;;12.68;100.00;95557.97;5042167;28;20202;-70
2022/09/26 07:28:39;;;;;;;9.67;4.50;;;;;;;12.86;100.00;95555.53;5042170;28;20205;-72
2022/09/26 07:31:06;;;;;;;13.17;4.90;;;;;;;12.94;100.00;95550.03;5037932;28;20242;-70
2022/09/26 07:33:34;;;;;;;8.97;4.40;;;;;;;12.95;100.00;95562.22;5037031;28;20213;-69
2022/09/26 07:36:01;;;;;;;8.90;4.60;;;;;;;12.96;100.00;95559.38;5037515;28;20229;-69
2022/09/26 07:38:28;;;;;;;9.10;4.57;;;;;;;13.00;100.00;95559.78;5036177;28;20208;-70
2022/09/26 07:40:54;;;;;;;9.48;4.30;;;;;;;13.00;100.00;95551.84;5038266;28;20208;-69
2022/09/26 07:43:21;;;;;;;10.23;4.60;;;;;;;13.12;100.00;95544.88;5037312;28;20193;-69
2022/09/26 07:51:22;;;;;;;8.65;3.80;;;;;;;13.03;100.00;95552.22;5039300;28;20492;-70
2022/09/26 07:53:48;;;;;;;8.68;4.45;;;;;;;13.02;100.00;95555.06;5037818;28;20209;-70
2022/09/26 07:56:15;;;;;;;6.93;3.60;;;;;;;13.15;100.00;95542.63;5038338;28;20228;-69
2022/09/26 07:58:43;;;;;;;8.13;4.27;;;;;;;12.92;100.00;95546.78;5045108;28;20299;-70
2022/09/26 08:01:12;;;;;;;8.67;3.80;;;;;;;12.80;100.00;95551.03;5045674;28;21011;-69
2022/09/26 08:03:41;;;;;;;7.10;3.77;;;;;;;13.02;100.00;95552.44;5044163;28;20209;-71
2022/09/26 08:06:08;;;;;;;8.33;3.97;;;;;;;13.11;100.00;95551.19;5043719;28;20201;-70
2022/09/26 08:08:35;;;;;;;5.53;3.27;;;;;;;13.35;99.04;95537.25;5045006;28;20259;-70
2022/09/26 08:11:02;;;;;;;7.80;3.90;;;;;;;13.27;99.33;95529.56;5045905;28;20292;-70
2022/09/26 08:13:30;;;;;;;7.57;3.90;;;;;;;13.35;99.18;95534.59;5042902;28;20251;-70
2022/09/26 08:16:02;;;;;;;8.93;3.83;;;;;;;13.28;99.17;95531.19;5044759;28;20701;-70
2022/09/26 08:18:29;;;;;;;7.55;3.78;;;;;;;13.43;98.40;95530.69;5045806;28;20215;-70
2022/09/26 08:20:57;;;;;;;11.18;4.15;;;;;;;13.69;97.69;95529.75;5041720;28;20201;-70
2022/09/26 08:23:23;;;;;;;7.93;3.95;;;;;;;13.57;96.76;95524.31;5043584;28;20204;-69
2022/09/26 08:25:50;;;;;;;6.70;3.70;;;;;;;13.68;93.86;95531.59;5038854;28;20224;-70
2022/09/26 08:28:17;;;;;;;5.85;2.97;;;;;;;13.65;94.92;95534.66;5038566;28;20212;-70
2022/09/26 08:30:44;;;;;;;4.50;2.90;;;;;;;13.74;94.44;95528.06;5037565;28;21098;-70
2022/09/26 08:33:12;;;;;;;9.15;4.03;;;;;;;13.83;94.95;95528.66;5037867;28;20251;-70
2022/09/26 08:35:39;;;;;;;7.90;3.80;;;;;;;14.12;95.94;95524.38;5037041;28;20221;-70
2022/09/26 08:38:08;;;;;;;4.93;2.13;;;;;;;13.92;91.27;95530.81;5036686;28;20208;-70
2022/09/26 08:40:45;;;;;;;4.78;3.13;;;;;;;13.92;91.56;95541.41;5034825;28;20225;-70
2022/09/26 08:43:30;;;;;;;5.88;3.05;;;;;;;13.89;91.84;95533.91;5036024;28;20254;-70
2022/09/26 08:49:05;;;;;;;3.97;2.58;;;;;;;13.92;92.49;95514.13;5034371;28;20274;-71
2022/09/26 08:51:33;;;;;;;5.68;2.72;;;;;;;13.99;94.41;95505.09;5036510;28;20209;-70
2022/09/26 08:54:06;;;;;;;5.03;2.67;;;;;;;14.14;94.19;95502.97;5034129;28;20205;-70
2022/09/26 08:56:36;;;;;;;4.97;3.00;;;;;;;14.22;94.61;95494.75;5037026;28;20213;-70
2022/09/26 08:59:06;;;;;;;9.45;4.03;;;;;;;14.32;94.12;95489.75;5036669;28;20568;-70
2022/09/26 09:01:40;;;;;;;7.40;4.00;;;;;;;14.33;91.39;95486.09;5037220;28;20216;-71
2022/09/26 09:04:14;;;;;;;6.45;3.25;;;;;;;14.29;86.52;95492.84;5041782;28;20197;-70
2022/09/26 09:06:42;;;;;;;6.93;3.92;;;;;;;14.27;86.44;95487.78;5045037;28;20201;-71
2022/09/26 09:09:15;;;;;;;7.75;3.67;;;;;;;14.53;89.01;95499.97;5038196;28;20217;-71
2022/09/26 09:11:57;;;;;;;10.32;4.20;;;;;;;14.71;89.02;95501.63;5040136;28;20700;-71
2022/09/26 09:14:43;;;;;;;7.82;4.03;;;;;;;14.59;88.15;95485.81;5037807;28;20201;-70
2022/09/26 09:17:19;;;;;;;5.18;3.47;;;;;;;14.64;87.40;95495.56;5034461;28;20221;-70
2022/09/26 09:19:59;;;;;;;4.90;3.10;;;;;;;14.51;88.51;95494.06;5035025;28;20260;-70
2022/09/26 09:22:43;;;;;;;5.88;3.30;;;;;;;14.35;89.10;95492.78;5035925;28;20205;-70
2022/09/26 09:25:16;;;;;;;4.03;3.17;;;;;;;14.43;90.46;95497.00;5035431;28;20201;-70
2022/09/26 09:27:56;;;;;;;4.78;2.97;;;;;;;14.58;82.93;95484.22;5036831;28;20231;-70
2022/09/26 09:30:25;;;;;;;7.15;3.25;;;;;;;14.82;82.73;95490.28;5035719;28;20240;-70
2022/09/26 09:32:55;;;;;;;5.30;2.85;;;;;;;15.02;86.48;95488.22;5035346;28;20205;-70
2022/09/26 09:35:30;;;;;;;6.25;3.28;;;;;;;15.04;89.28;95485.34;5035561;28;20261;-70
2022/09/26 09:37:57;;;;;;;4.47;2.78;;;;;;;15.06;84.33;95476.13;5035462;28;20572;-70
2022/09/26 09:40:29;;;;;;;5.05;3.13;;;;;;;15.39;82.49;95476.56;5042438;28;21157;-71
2022/09/26 09:43:02;;;;;;;4.00;2.58;;;;;;;15.18;83.84;95471.69;5043482;28;20197;-71
2022/09/26 09:45:36;;;;;;;4.75;2.72;;;;;;;15.38;83.49;95472.28;5042251;28;20197;-71
2022/09/26 09:48:03;;;;;;;4.07;2.67;;;;;;;15.44;83.83;95471.34;5042660;28;20200;-71
2022/09/26 09:50:39;;;;;;;5.43;2.67;;;;;;;15.51;80.57;95466.78;5043099;28;20225;-70
2022/09/26 09:53:21;;;;;;;3.88;2.45;;;;;;;15.64;74.06;95467.41;5040898;28;20200;-71
2022/09/26 09:55:58;;;;;;;5.47;2.47;;;;;;;15.62;81.08;95464.19;5041008;28;20220;-70
2022/09/26 09:58:38;;;;;;;5.75;2.50;;;;;;;15.77;81.38;95463.75;5037429;28;20237;-71
2022/09/26 10:01:12;;;;;;;3.17;2.03;;;;;;;15.67;75.11;95466.97;5042750;28;20208;-71
2022/09/26 10:03:46;;;;;;;3.75;2.42;;;;;;;15.86;79.98;95458.69;5040305;28;20206;-70
2022/09/26 10:06:13;;;;;;;7.03;2.47;;;;;;;15.70;72.21;95474.47;5037156;28;21001;-71
2022/09/26 10:08:41;;;;;;;5.25;2.03;;;;;;;15.09;73.54;95466.91;5034264;28;20200;-70
2022/09/26 10:11:22;;;;;;;5.60;2.10;;;;;;;15.60;70.89;95455.59;5034928;28;20332;-70
2022/09/26 10:13:52;;;;;;;4.78;2.38;;;;;;;15.60;73.87;95455.59;5033639;28;20205;-71
2022/09/26 10:16:19;;;;;;;9.07;2.80;;;;;;;15.63;76.04;95449.03;5033770;28;20217;-71
2022/09/26 10:18:54;;;;;;;3.50;2.05;;;;;;;15.73;72.57;95444.78;5034113;28;20197;-70
2022/09/26 10:21:22;;;;;;;3.58;1.95;;;;;;;16.06;74.04;95451.22;5035896;28;20216;-70
2022/09/26 10:23:50;;;;;;;1.95;1.38;;;;;;;16.13;69.91;95443.94;5032507;28;20205;-70
2022/09/26 10:26:24;;;;;;;2.45;1.60;;;;;;;16.36;72.61;95441.34;5030959;28;20410;-70
2022/09/26 10:28:54;;;;;;;3.70;1.67;;;;;;;16.79;70.55;95436.44;5034959;28;20228;-70
2022/09/26 10:31:28;;;;;;;2.10;1.33;;;;;;;16.98;66.89;95435.25;5035862;28;21102;-70
2022/09/26 10:33:59;;;;;;;1.67;1.00;;;;;;;16.51;66.49;95439.03;5034438;28;20197;-70
2022/09/26 10:36:30;;;;;;;1.52;1.13;;;;;;;16.57;67.58;95435.41;5035451;28;20232;-70
2022/09/26 10:41:45;;;;;;;1.27;0.90;;;;;;;16.95;66.60;95423.22;5034154;28;20228;-71
2022/09/26 10:44:24;;;;;;;4.57;1.25;;;;;;;17.44;67.29;95410.13;5032750;28;20201;-70
2022/09/26 10:46:56;;;;;;;1.23;0.80;;;;;;;17.30;65.49;95414.09;5034149;28;20197;-70
2022/09/26 10:49:30;;;;;;;3.00;1.27;;;;;;;17.44;67.32;95415.44;5033557;28;20236;-70
2022/09/26 10:52:07;;;;;;;3.67;1.50;;;;;;;16.36;70.13;95425.38;5034389;28;20262;-70
2022/09/26 10:54:41;;;;;;;1.23;1.13;;;;;;;16.64;70.11;95418.31;5032381;28;20200;-70
2022/09/26 10:57:19;;;;;;;2.53;1.55;;;;;;;16.67;70.02;95415.16;5031594;28;20208;-71
2022/09/26 10:59:48;;;;;;;2.42;1.33;;;;;;;16.62;69.40;95408.94;5034669;28;20232;-70
2022/09/26 11:02:22;;;;;;;1.90;1.48;;;;;;;16.79;69.60;95415.97;5038145;28;20561;-70
2022/09/26 11:07:41;;;;;;;2.53;1.48;;;;;;;16.70;68.87;95411.22;5039106;28;20208;-71
2022/09/26 11:10:11;;;;;;;2.78;1.60;;;;;;;16.46;70.85;95400.84;5037857;28;21134;-70
2022/09/26 11:12:55;;;;;;;3.78;1.73;;;;;;;16.55;73.60;95400.28;5036348;28;20197;-71
2022/09/26 11:15:22;;;;;;;3.05;1.60;;;;;;;16.29;73.90;95400.75;5036774;28;20247;-70
2022/09/26 11:17:51;;;;;;;2.42;1.50;;;;;;;16.45;71.85;95391.28;5037464;28;20209;-71
2022/09/26 11:20:34;;;;;;;5.93;1.73;;;;;;;16.25;71.56;95386.28;5036418;28;20228;-71
2022/09/26 11:23:11;;;;;;;1.60;1.35;;;;;;;15.91;72.58;95384.44;5033370;28;20204;-71
2022/09/26 11:25:49;;;;;;;4.85;1.58;;;;;;;15.74;75.19;95376.56;5037835;28;20209;-72
2022/09/26 11:28:23;;;;;;;1.80;1.30;;;;;;;16.02;76.64;95382.81;5038063;28;20201;-73
2022/09/26 11:30:55;;;;;;;3.50;1.40;;;;;;;15.89;74.36;95383.84;5037478;28;20229;-71
2022/09/26 11:33:24;;;;;;;1.58;1.10;;;;;;;15.86;75.42;95378.19;5035984;28;20205;-71
2022/09/26 11:36:02;;;;;;;2.75;1.40;;;;;;;15.96;72.84;95373.09;5036611;28;20259;-72
2022/09/26 11:38:38;;;;;;;4.55;1.48;;;;;;;15.85;73.77;95374.72;5037995;28;20201;-71
2022/09/26 11:41:46;;;;;;;2.97;1.20;;;;;;;15.92;70.26;95369.28;5036147;28;20595;-72
2022/09/26 11:44:39;;;;;;;2.38;1.13;;;;;;;16.03;70.17;95366.63;4971685;28;20206;-72
2022/09/26 11:47:40;;;;;;;4.60;1.13;;;;;;;16.18;65.74;95359.00;4974096;28;20203;-71
2022/09/26 11:50:25;;;;;;;4.72;1.08;;;;;;;15.97;66.50;95362.25;5029692;28;21034;-72
2022/09/26 11:53:07;;;;;;;2.20;1.00;;;;;;;15.71;66.14;95356.56;5032864;28;20953;-70
2022/09/26 11:55:50;;;;;;;2.13;1.10;;;;;;;15.76;64.62;95353.22;5034636;28;20209;-72
2022/09/26 11:58:23;;;;;;;2.33;1.00;;;;;;;15.74;66.14;95344.69;5036144;28;20665;-72
2022/09/26 12:00:59;;;;;;;2.67;1.10;;;;;;;15.92;64.80;95343.53;5037134;28;20229;-72